Latest Weather Observations for Wynyard

IDT60801

Issued at 6:41 am EST Tuesday 7 July 2020 (issued every 10 minutes, with the page automatically refreshed every 10 minutes)

About weather observations | Map of weather stations | Latest weather observations for TAS | Other Formats
Station Details ID: 091107 Name: WYNYARD AIRPORT Lat: -41.00 Lon: 145.73 Height: 12.0 m
Data from the previous 72 hours. | See also: Recent months at Wynyard
Date/Time
EST
Temp
°C
App
Temp
°C
Dew
Point
°C
Rel
Hum
%
Delta-T
°C
Wind Press
QNH
hPa
Press
MSL
hPa
Rain since
9am
mm
Dir  Spd
km/h
Gust
km/h
Spd
kts
Gust
kts
07/06:30am 2.7 -0.9 0.6 86 0.8 SSW 9 13 5 7 1031.4 1031.4 0.0
07/06:00am 3.6 0.1 1.3 85 0.9 SSW 9 15 5 8 1030.9 1030.9 0.0
07/05:30am 3.5 -0.7 1.9 89 0.6 SSW 13 17 7 9 1030.5 1030.5 0.0
07/05:00am 3.2 -0.7 1.4 88 0.7 SSW 11 15 6 8 1030.5 1030.5 0.0
07/04:30am 3.6 -0.3 1.0 83 1.0 SW 11 13 6 7 1030.3 1030.3 0.0
07/04:00am 3.8 0.8 1.7 86 0.8 SW 7 9 4 5 1030.0 1030.0 0.0
07/03:30am 3.5 0.1 1.9 89 0.6 SW 9 13 5 7 1030.1 1030.1 0.0
07/03:00am 4.4 2.4 2.3 86 0.8 N 2 6 1 3 1030.1 1030.1 0.0
07/02:30am 4.8 2.4 2.2 83 1.0 SW 4 7 2 4 1029.8 1029.8 0.0
07/02:00am 5.3 1.0 3.3 87 0.8 SW 15 20 8 11 1029.6 1029.6 0.0
07/01:30am 3.2 -1.1 3.1 99 0.0 WSW 15 17 8 9 1029.7 1029.7 0.0
07/01:00am 3.4 -0.5 3.3 99 0.0 WSW 13 15 7 8 1029.6 1029.6 0.0
07/12:57am 3.2 -0.8 3.1 99 0.0 WSW 13 15 7 8 1029.6 1029.6 0.0
07/12:30am 3.2 -0.8 3.1 99 0.0 W 13 13 7 7 1029.6 1029.6 0.0
07/12:00am 3.0 -0.7 2.6 97 0.2 W 11 13 6 7 1029.4 1029.4 0.0
 
Date/Time
EST
Temp
°C
App
Temp
°C
Dew
Point
°C
Rel
Hum
%
Delta-T
°C
Wind Press
QNH
hPa
Press
MSL
hPa
Rain since
9am
mm
Dir  Spd
km/h
Gust
km/h
Spd
kts
Gust
kts
06/11:44pm 3.8 0.7 3.4 97 0.2 W 9 11 5 6 1029.3 1029.3 0.0
06/11:30pm 5.7 3.3 5.4 98 0.1 W 7 9 4 5 1029.3 1029.3 0.0
06/11:00pm 4.6 1.6 4.2 97 0.2 WNW 9 11 5 6 1029.1 1029.1 0.0
06/10:59pm 5.1 2.2 4.7 97 0.2 WNW 9 11 5 6 1029.1 1029.1 0.0
06/10:44pm 5.1 2.6 4.5 96 0.3 WSW 7 9 4 5 1028.8 1028.8 0.0
06/10:30pm 5.9 4.1 5.5 97 0.2 SW 4 9 2 5 1028.8 1028.8 0.0
06/10:00pm 6.0 3.2 5.3 95 0.3 SW 9 11 5 6 1028.6 1028.6 0.0
06/09:30pm 6.5 3.8 5.5 93 0.4 W 9 11 5 6 1028.4 1028.4 0.0
06/09:00pm 8.9 5.4 7.4 90 0.7 WNW 15 19 8 10 1028.0 1028.0 0.0
06/08:30pm 8.8 5.7 7.4 91 0.7 WNW 13 17 7 9 1028.0 1028.0 0.0
06/08:00pm 8.4 5.2 6.7 89 0.8 WNW 13 17 7 9 1027.6 1027.6 0.0
06/07:30pm 8.7 5.0 6.5 86 1.0 W 15 19 8 10 1027.4 1027.4 0.0
06/07:00pm 9.3 6.2 7.1 86 1.0 WSW 13 19 7 10 1027.0 1027.0 0.0
06/06:30pm 9.1 5.4 6.5 84 1.2 W 15 22 8 12 1026.7 1026.7 0.0
06/06:00pm 9.4 5.4 6.8 84 1.2 W 17 20 9 11 1026.5 1026.5 0.0
06/05:30pm 9.2 5.9 6.3 82 1.3 WNW 13 17 7 9 1026.7 1026.7 0.0
06/05:00pm 10.0 6.3 6.2 77 1.7 W 15 20 8 11 1026.6 1026.6 0.0
06/04:30pm 11.0 6.6 6.6 74 2.1 WSW 19 24 10 13 1026.5 1026.5 0.0
06/04:00pm 12.0 7.5 6.9 71 2.4 WSW 20 26 11 14 1026.3 1026.3 0.0
06/03:30pm 12.5 6.5 7.2 70 2.6 SW 28 37 15 20 1026.2 1026.2 0.0
06/03:08pm 13.1 7.0 6.5 64 3.2 SW 28 52 15 28 1025.9 1025.9 0.0
06/03:00pm 13.5 7.9 7.3 66 3.0 SW 26 41 14 22 1026.1 1026.1 0.0
06/02:30pm 13.8 7.7 6.7 62 3.4 SW 28 44 15 24 1025.9 1025.9 0.0
06/02:00pm 13.4 8.4 6.5 63 3.3 WSW 22 33 12 18 1025.8 1025.8 0.0
06/01:30pm 13.7 8.4 6.6 62 3.4 SW 24 35 13 19 1026.0 1026.0 0.0
06/01:00pm 13.5 6.9 5.9 60 3.6 SW 30 43 16 23 1026.3 1026.3 0.0
06/12:30pm 12.5 5.8 5.7 63 3.2 SW 30 50 16 27 1026.2 1026.2 0.0
06/12:28pm 12.6 5.8 5.3 61 3.4 SW 30 50 16 27 1026.3 1026.3 0.0
06/12:00pm 14.1 8.4 8.3 68 2.9 WSW 28 39 15 21 1026.2 1026.2 0.0
06/11:30am 13.4 8.4 8.0 70 2.7 WSW 24 30 13 16 1026.6 1026.6 0.0
06/11:00am 12.8 7.4 7.9 72 2.4 W 26 35 14 19 1026.7 1026.7 0.0
06/10:30am 12.3 8.5 9.0 80 1.7 WSW 19 26 10 14 1027.0 1027.0 0.0
06/10:00am 11.4 8.7 8.8 84 1.3 WNW 13 22 7 12 1026.9 1026.9 0.0
06/09:30am 10.8 8.3 8.2 84 1.3 NW 11 15 6 8 1027.1 1027.1 0.0
06/09:00am 10.1 7.5 9.2 94 0.4 NNW 13 15 7 8 1027.0 1027.0 0.2
06/08:30am 7.9 5.2 7.5 97 0.2 WNW 11 13 6 7 1027.0 1027.0 0.2
06/08:00am 6.9 4.3 6.3 96 0.3 WNW 9 11 5 6 1026.8 1026.8 0.2
06/07:30am 7.1 4.3 7.0 99 0.0 W 11 13 6 7 1026.7 1026.7 0.2
06/07:00am 5.7 2.6 5.6 99 0.0 W 11 13 6 7 1026.5 1026.5 0.2
06/06:30am 3.5 -0.1 3.2 98 0.1 W 11 13 6 7 1026.2 1026.2 0.2
06/06:00am 2.8 -0.5 2.2 96 0.2 W 9 11 5 6 1025.7 1025.7 0.2
06/05:30am 3.7 0.9 3.3 97 0.2 SW 7 9 4 5 1025.6 1025.6 0.2
06/05:00am 3.9 1.1 3.3 96 0.2 SW 7 9 4 5 1025.4 1025.4 0.2
06/04:30am 4.8 2.2 4.2 96 0.3 WSW 7 9 4 5 1025.3 1025.3 0.2
06/04:00am 3.5 0.6 2.8 95 0.3 WSW 7 9 4 5 1025.4 1025.4 0.2
06/03:30am 5.1 2.1 4.2 94 0.4 WNW 9 13 5 7 1025.5 1025.5 0.2
06/03:00am 4.9 1.9 3.9 93 0.4 W 9 13 5 7 1025.6 1025.6 0.2
06/02:30am 5.7 2.8 4.8 94 0.4 NW 9 15 5 8 1025.8 1025.8 0.2
06/02:00am 5.4 2.8 4.2 92 0.5 W 7 13 4 7 1025.6 1025.6 0.2
06/01:30am 6.8 3.5 4.8 87 0.9 WNW 11 17 6 9 1025.5 1025.5 0.2
06/01:00am 7.3 3.1 5.8 90 0.7 W 17 20 9 11 1025.7 1025.7 0.2
06/12:30am 6.3 2.7 4.8 90 0.7 W 13 17 7 9 1025.7 1025.7 0.2
06/12:00am 7.9 4.1 5.7 86 1.0 NW 15 20 8 11 1025.7 1025.7 0.2
 
Date/Time
EST
Temp
°C
App
Temp
°C
Dew
Point
°C
Rel
Hum
%
Delta-T
°C
Wind Press
QNH
hPa
Press
MSL
hPa
Rain since
9am
mm
Dir  Spd
km/h
Gust
km/h
Spd
kts
Gust
kts
05/11:30pm 7.2 4.5 5.7 90 0.7 NW 9 13 5 7 1025.7 1025.7 0.2
05/11:00pm 6.2 2.5 4.7 90 0.6 W 13 17 7 9 1025.5 1025.5 0.2
05/10:30pm 6.9 3.0 5.4 90 0.7 WNW 15 17 8 9 1025.4 1025.4 0.2
05/10:00pm 7.3 3.1 5.6 89 0.8 W 17 19 9 10 1025.2 1025.2 0.2
05/09:30pm 7.9 5.3 6.0 88 0.9 NNW 9 13 5 7 1024.9 1024.9 0.2
05/09:00pm 6.8 3.3 5.4 91 0.6 W 13 17 7 9 1024.7 1024.7 0.2
05/08:30pm 7.7 5.0 5.7 87 0.9 WNW 9 13 5 7 1024.5 1024.5 0.2
05/08:00pm 7.6 4.2 5.7 88 0.8 W 13 17 7 9 1024.3 1024.3 0.2
05/07:30pm 8.6 4.5 6.4 86 1.0 WSW 17 22 9 12 1024.1 1024.1 0.2
05/07:00pm 9.7 5.8 7.0 83 1.3 W 17 20 9 11 1024.0 1024.0 0.2
05/06:30pm 10.2 7.1 7.3 82 1.4 W 13 15 7 8 1023.8 1023.8 0.2
05/06:00pm 9.3 5.7 6.7 84 1.2 W 15 19 8 10 1023.4 1023.4 0.2
05/05:30pm 10.0 7.4 6.2 77 1.8 WSW 9 15 5 8 1022.9 1022.9 0.2
05/05:00pm 11.8 8.8 7.5 75 2.1 SSW 13 19 7 10 1022.4 1022.4 0.2
05/04:30pm 12.5 9.5 7.6 72 2.4 WSW 13 19 7 10 1022.3 1022.3 0.2
05/04:00pm 13.0 8.9 7.9 71 2.5 WSW 19 24 10 13 1022.0 1022.0 0.2
05/03:30pm 14.2 10.1 7.9 66 3.1 WSW 19 26 10 14 1021.8 1021.8 0.2
05/03:00pm 14.4 9.6 7.5 63 3.4 SW 22 33 12 18 1021.9 1021.9 0.2
05/02:30pm 15.1 11.0 8.6 65 3.3 SW 20 33 11 18 1021.4 1021.4 0.0
05/02:00pm 15.5 12.3 8.5 63 3.5 SW 15 26 8 14 1021.3 1021.3 0.0
05/01:30pm 14.6 11.6 7.9 64 3.3 SW 13 20 7 11 1021.2 1021.2 0.0
05/01:00pm 15.2 11.2 8.9 66 3.2 WSW 20 26 11 14 1021.4 1021.4 0.0
05/12:30pm 14.7 11.1 8.4 66 3.2 WSW 17 26 9 14 1021.6 1021.6 0.0
05/12:00pm 14.0 9.3 7.8 66 3.1 SW 22 32 12 17 1021.9 1021.9 0.0
05/11:30am 14.0 10.0 8.2 68 2.9 WSW 19 26 10 14 1022.2 1022.2 0.0
05/11:00am 13.9 9.3 8.3 69 2.8 WSW 22 32 12 17 1022.2 1022.2 0.0
05/10:30am 13.6 10.2 7.8 68 2.9 W 15 20 8 11 1022.3 1022.3 0.0
05/10:00am 12.8 9.8 7.7 71 2.5 W 13 19 7 10 1022.1 1022.1 0.0
05/09:30am 12.0 10.0 6.9 71 2.4 WNW 7 11 4 6 1022.0 1022.0 0.0
05/09:00am 11.0 8.1 6.7 75 2.0 WSW 11 22 6 12 1021.5 1021.5 0.0
05/08:30am 10.3 4.1 6.3 76 1.9 WSW 28 35 15 19 1020.6 1020.6 0.0
05/08:00am 10.4 2.9 6.2 75 1.9 SW 35 46 19 25 1020.2 1020.2 0.0
05/07:30am 10.1 2.2 6.1 76 1.9 SW 37 50 20 27 1020.1 1020.1 0.0
05/07:00am 9.9 2.4 6.1 77 1.7 SSW 35 52 19 28 1019.7 1019.7 0.0
05/06:42am 9.9 2.7 5.9 76 1.8 SSW 33 52 18 28 1019.3 1019.3 0.0
05/06:30am 9.8 2.6 5.8 76 1.8 SSW 33 46 18 25 1019.3 1019.3 0.0
05/06:00am 9.4 3.9 5.8 78 1.6 SW 24 37 13 20 1019.5 1019.5 0.0
05/05:30am 8.8 5.0 5.7 81 1.4 WSW 15 20 8 11 1019.6 1019.6 0.0
05/05:00am 9.4 6.0 6.1 80 1.5 WSW 13 20 7 11 1019.3 1019.3 0.0
05/04:30am 9.6 6.7 6.5 81 1.4 NW 11 15 6 8 1019.5 1019.5 0.0
05/04:00am 9.4 7.8 6.5 82 1.3 NW 4 9 2 5 1019.3 1019.3 0.0
05/03:30am 9.3 6.0 6.4 82 1.3 NNW 13 17 7 9 1019.4 1019.4 0.0
05/03:00am 8.8 5.9 6.3 84 1.1 NNW 11 15 6 8 1019.6 1019.6 0.0
05/02:30am 9.2 5.6 6.6 84 1.2 NW 15 20 8 11 1019.7 1019.7 0.0
05/02:00am 8.7 6.0 5.6 81 1.4 N 9 15 5 8 1019.7 1019.7 0.0
05/01:30am 8.7 6.4 5.6 81 1.4 W 7 11 4 6 1019.6 1019.6 0.0
05/01:00am 9.0 5.6 5.9 81 1.4 W 13 20 7 11 1019.5 1019.5 0.0
05/12:30am 8.7 5.3 5.8 82 1.3 WSW 13 17 7 9 1019.6 1019.6 0.0
05/12:00am 8.3 5.7 5.9 85 1.1 N 9 11 5 6 1019.7 1019.7 0.0
 
Date/Time
EST
Temp
°C
App
Temp
°C
Dew
Point
°C
Rel
Hum
%
Delta-T
°C
Wind Press
QNH
hPa
Press
MSL
hPa
Rain since
9am
mm
Dir  Spd
km/h
Gust
km/h
Spd
kts
Gust
kts
04/11:30pm 9.4 6.6 6.8 84 1.2 SSW 11 20 6 11 1019.6 1019.6 0.0
04/11:00pm 9.6 6.1 7.2 85 1.1 WSW 15 24 8 13 1019.3 1019.3 0.0
04/10:30pm 9.4 5.0 7.2 86 1.0 W 20 32 11 17 1019.2 1019.2 0.0
04/10:00pm 9.6 4.0 7.2 85 1.1 W 26 33 14 18 1019.0 1019.0 0.0
04/09:30pm 9.4 4.2 7.2 86 1.0 W 24 32 13 17 1019.1 1019.1 0.0
04/09:00pm 9.3 4.9 7.3 87 0.9 WNW 20 28 11 15 1018.9 1018.9 0.0
04/08:30pm 9.4 5.5 7.0 85 1.1 WNW 17 24 9 13 1018.9 1018.9 0.0
04/08:00pm 9.4 5.8 6.8 84 1.2 NW 15 24 8 13 1018.7 1018.7 0.0
04/07:30pm 9.8 5.5 7.1 83 1.3 W 19 26 10 14 1018.3 1018.3 0.0
04/07:00pm 9.9 5.1 7.3 84 1.2 WNW 22 28 12 15 1017.9 1017.9 0.0
04/06:30pm 10.1 5.9 7.5 84 1.2 WNW 19 22 10 12 1017.6 1017.6 0.0
04/06:00pm 10.1 5.4 7.7 85 1.1 W 22 26 12 14 1017.3 1017.3 0.0
04/05:30pm 10.4 6.0 7.5 82 1.4 WNW 20 26 11 14 1017.0 1017.0 0.0
04/05:00pm 11.1 6.5 8.0 81 1.5 W 22 28 12 15 1016.6 1016.7 0.0
04/04:30pm 11.7 7.1 8.0 78 1.8 W 22 28 12 15 1016.3 1016.4 0.0
04/04:00pm 12.1 6.4 8.4 78 1.8 W 28 35 15 19 1016.2 1016.3 0.0
04/03:30pm 12.7 7.7 8.2 74 2.2 W 24 30 13 16 1016.1 1016.2 0.0
04/03:00pm 13.0 7.4 8.7 75 2.1 W 28 41 15 22 1016.1 1016.2 0.0
04/02:30pm 12.7 6.3 8.4 75 2.1 W 32 41 17 22 1015.9 1016.0 0.0
04/02:00pm 12.9 6.6 9.0 77 2.0 W 32 43 17 23 1015.8 1015.9 0.0
04/01:30pm 13.5 7.1 9.2 75 2.2 W 33 52 18 28 1015.7 1015.8 0.0
04/01:22pm 13.0 7.0 8.7 75 2.2 W 30 50 16 27 1015.6 1015.7 0.0
04/01:00pm 12.6 6.2 8.7 77 1.9 W 32 44 17 24 1015.9 1016.0 0.0
04/12:30pm 12.9 6.9 8.8 76 2.1 WSW 30 46 16 25 1016.0 1016.1 0.0
04/12:29pm 13.2 7.7 9.3 77 2.0 WSW 28 46 15 25 1016.0 1016.1 0.0
04/12:00pm 12.9 8.1 8.8 76 2.1 W 24 32 13 17 1016.2 1016.3 0.0
04/11:30am 12.5 7.7 8.8 78 1.8 W 24 39 13 21 1016.4 1016.5 0.0
04/11:00am 12.6 7.5 9.1 79 1.8 W 26 35 14 19 1016.7 1016.8 0.0
04/10:30am 12.0 6.8 8.8 81 1.6 WSW 26 32 14 17 1016.8 1016.9 0.0
04/10:00am 11.2 6.8 8.9 86 1.1 W 22 30 12 16 1016.6 1016.7 0.0
04/09:30am 9.3 4.7 8.1 92 0.6 WSW 22 26 12 14 1016.6 1016.7 0.0
04/09:00am 6.6 2.0 6.3 98 0.1 WSW 20 22 11 12 1016.5 1016.6 0.0
04/08:30am 5.2 1.6 4.8 97 0.2 W 13 13 7 7 1016.4 1016.5 0.0
04/08:00am 4.8 0.3 4.4 97 0.2 WSW 17 19 9 10 1016.6 1016.7 0.0
04/07:30am 4.7 1.4 4.3 97 0.2 WSW 11 13 6 7 1016.6 1016.7 0.0
04/07:00am 4.2 0.7 3.6 96 0.2 W 11 13 6 7 1016.8 1016.9 0.0

Other formats

Comma delimited format used in spreadsheet applications
http://www.bom.gov.au/fwo/IDT60801/IDT60801.95957.axf

JavaScript Object Notation format (JSON) in row-major order
http://www.bom.gov.au/fwo/IDT60801/IDT60801.95957.json

Data quality

Most of these data are generated automatically and are frequently updated. Quality checks on data are not normally performed. It is possible for incorrect values to appear. Refer to information at About Latest Weather Observations and please check the disclaimer before using these data.